createdAt,value
2022-10-18T00:02:23.759Z,11.02
2022-10-18T00:05:29.923Z,10.95
2022-10-18T00:08:36.121Z,10.87
2022-10-18T00:11:45.234Z,10.42
2022-10-18T00:14:52.875Z,10.99
2022-10-18T00:18:00.703Z,10.67
2022-10-18T00:21:22.925Z,10.27
2022-10-18T00:24:28.834Z,10.53
2022-10-18T00:27:45.503Z,10.43
2022-10-18T00:30:52.075Z,9.83
2022-10-18T00:34:00.489Z,10.41
2022-10-18T00:37:21.871Z,10.70
2022-10-18T00:40:27.598Z,9.92
2022-10-18T00:43:36.568Z,10.23
2022-10-18T00:46:45.426Z,10.26
2022-10-18T00:49:57.651Z,10.17
2022-10-18T00:53:14.869Z,10.25
2022-10-18T00:56:24.599Z,10.90
2022-10-18T00:59:35.588Z,10.82
2022-10-18T01:02:47.101Z,10.76
2022-10-18T01:05:53.083Z,10.40
2022-10-18T01:09:29.662Z,10.67
2022-10-18T01:12:56.888Z,10.12
2022-10-18T01:16:20.721Z,10.21
2022-10-18T01:20:11.328Z,10.26
2022-10-18T01:23:41.439Z,10.45
2022-10-18T01:27:26.130Z,10.65
2022-10-18T01:30:52.261Z,10.27
2022-10-18T01:34:08.192Z,10.35
2022-10-18T01:37:21.539Z,10.39
2022-10-18T01:40:29.600Z,10.22
2022-10-18T01:43:39.948Z,10.23
2022-10-18T01:46:57.542Z,10.68
2022-10-18T01:50:10.111Z,10.61
2022-10-18T01:53:31.804Z,10.74
2022-10-18T01:56:51.853Z,11.12
2022-10-18T02:00:06.747Z,10.98
2022-10-18T02:03:30.613Z,11.01
2022-10-18T02:06:46.239Z,10.96
2022-10-18T02:10:08.927Z,11.09
2022-10-18T02:13:24.093Z,11.62
2022-10-18T02:16:40.812Z,12.32
2022-10-18T02:19:59.097Z,13.14
2022-10-18T02:23:08.110Z,12.11
2022-10-18T02:26:13.856Z,11.83
2022-10-18T02:29:23.563Z,11.56
2022-10-18T02:32:41.431Z,11.68
2022-10-18T02:35:59.901Z,11.56
2022-10-18T02:39:22.358Z,11.94
2022-10-18T02:42:28.202Z,11.30
2022-10-18T02:45:34.103Z,12.07
2022-10-18T02:48:44.541Z,12.39
2022-10-18T02:51:52.750Z,14.42
2022-10-18T02:54:58.428Z,16.59
2022-10-18T02:58:11.306Z,17.19
2022-10-18T03:01:17.108Z,16.01
2022-10-18T03:04:24.331Z,14.64
2022-10-18T03:07:35.090Z,13.34
2022-10-18T03:10:40.743Z,12.70
2022-10-18T03:13:46.570Z,12.72
2022-10-18T03:16:56.969Z,12.04
2022-10-18T03:20:02.642Z,12.24
2022-10-18T03:23:13.447Z,12.73
2022-10-18T03:26:19.315Z,13.63
2022-10-18T03:29:24.873Z,14.43
2022-10-18T03:32:30.589Z,14.97
2022-10-18T03:35:36.687Z,14.41
2022-10-18T03:38:45.011Z,14.38
2022-10-18T03:41:50.759Z,14.11
2022-10-18T03:44:56.623Z,13.72
2022-10-18T03:48:02.295Z,13.17
2022-10-18T03:51:12.560Z,13.00
2022-10-18T03:54:29.474Z,13.20
2022-10-18T03:57:35.221Z,13.87
2022-10-18T04:00:40.857Z,14.30
2022-10-18T04:03:46.496Z,14.84
2022-10-18T04:06:52.199Z,13.98
2022-10-18T04:10:06.759Z,14.33
2022-10-18T04:13:32.920Z,14.23
2022-10-18T04:16:38.592Z,14.62
2022-10-18T04:19:45.180Z,14.03
2022-10-18T04:22:55.221Z,13.77
2022-10-18T04:26:03.466Z,13.71
2022-10-18T04:29:09.370Z,13.88
2022-10-18T04:32:17.655Z,14.10
2022-10-18T04:35:26.078Z,13.91
2022-10-18T04:38:31.858Z,13.25
2022-10-18T04:41:40.094Z,13.82
2022-10-18T04:44:46.291Z,14.17
2022-10-18T04:47:56.769Z,13.26
2022-10-18T04:51:04.983Z,13.49
2022-10-18T04:54:10.611Z,13.18
2022-10-18T04:57:19.060Z,12.92
2022-10-18T05:00:26.330Z,13.74
2022-10-18T05:03:31.940Z,13.99
2022-10-18T05:06:38.433Z,14.17
2022-10-18T05:09:44.012Z,14.44
2022-10-18T05:12:52.242Z,13.97
2022-10-18T05:15:59.624Z,13.77
2022-10-18T05:19:06.998Z,13.32
2022-10-18T05:22:12.563Z,12.91
2022-10-18T05:25:24.495Z,13.55
2022-10-18T05:28:40.102Z,14.07
2022-10-18T05:31:49.252Z,14.80
2022-10-18T05:34:58.871Z,15.72
2022-10-18T05:38:12.688Z,15.94
2022-10-18T05:41:18.292Z,15.35
2022-10-18T05:44:26.756Z,16.24
2022-10-18T05:47:32.492Z,16.38
2022-10-18T05:50:40.339Z,16.32
2022-10-18T05:53:46.232Z,15.95
2022-10-18T05:56:51.928Z,15.15
2022-10-18T06:00:09.801Z,15.09
2022-10-18T06:03:21.821Z,15.52
2022-10-18T06:06:33.762Z,15.27
2022-10-18T06:09:40.417Z,14.68
2022-10-18T06:12:46.107Z,14.81
2022-10-18T06:15:59.149Z,14.96
2022-10-18T06:19:04.746Z,14.39
2022-10-18T06:22:11.988Z,13.34
2022-10-18T06:25:17.920Z,12.48
2022-10-18T06:28:23.547Z,12.39
2022-10-18T06:31:34.102Z,12.45
2022-10-18T06:34:39.781Z,12.29
2022-10-18T06:37:45.442Z,12.35
2022-10-18T06:40:51.557Z,13.17
2022-10-18T06:44:01.921Z,12.56
2022-10-18T06:47:11.712Z,11.88
2022-10-18T06:50:23.623Z,11.65
2022-10-18T06:53:32.085Z,11.83
2022-10-18T06:56:39.009Z,12.01
2022-10-18T06:59:46.392Z,12.26
2022-10-18T07:02:55.728Z,12.39
2022-10-18T07:06:16.463Z,12.18
2022-10-18T07:09:22.012Z,11.33
2022-10-18T07:12:27.715Z,11.29
2022-10-18T07:15:44.784Z,11.23
2022-10-18T07:18:54.921Z,11.43
2022-10-18T07:22:00.446Z,11.30
2022-10-18T07:25:06.151Z,11.25
2022-10-18T07:28:12.948Z,11.11
2022-10-18T07:31:18.926Z,11.01
2022-10-18T07:34:29.075Z,10.59
2022-10-18T07:37:36.842Z,10.78
2022-10-18T07:40:42.596Z,10.53
2022-10-18T07:44:08.843Z,9.89
2022-10-18T07:47:15.496Z,10.31
2022-10-18T07:50:29.289Z,9.95
2022-10-18T07:53:38.470Z,9.81
2022-10-18T07:56:44.050Z,10.41
2022-10-18T07:59:56.279Z,10.74
2022-10-18T08:03:03.459Z,11.85
2022-10-18T08:06:16.508Z,13.42
2022-10-18T08:09:22.181Z,13.40
2022-10-18T08:12:30.258Z,13.25
2022-10-18T08:15:35.899Z,13.25
2022-10-18T08:18:42.419Z,12.87
2022-10-18T08:21:58.580Z,11.39
2022-10-18T08:25:04.464Z,10.06
2022-10-18T08:28:14.054Z,10.87
2022-10-18T08:31:22.279Z,11.28
2022-10-18T08:34:28.137Z,10.43
2022-10-18T08:37:36.563Z,11.88
2022-10-18T08:40:48.094Z,11.76
2022-10-18T08:44:08.988Z,9.70
2022-10-18T08:47:21.935Z,9.46
2022-10-18T08:50:37.948Z,9.97
2022-10-18T08:54:05.623Z,8.86
2022-10-18T08:57:20.645Z,11.15
2022-10-18T09:00:34.642Z,12.61
2022-10-18T09:04:07.435Z,10.93
2022-10-18T09:07:40.793Z,9.42
2022-10-18T09:11:10.034Z,9.52
2022-10-18T09:15:01.432Z,9.56
2022-10-18T09:18:33.123Z,9.92
2022-10-18T09:21:54.746Z,9.92
2022-10-18T09:25:16.102Z,9.07
2022-10-18T09:28:48.976Z,10.61
2022-10-18T09:32:07.552Z,10.42
2022-10-18T09:35:22.231Z,10.25
2022-10-18T09:38:35.229Z,10.01
2022-10-18T09:41:51.706Z,10.41
2022-10-18T09:45:09.552Z,10.70
2022-10-18T09:48:24.010Z,9.92
2022-10-18T09:51:38.391Z,12.58
2022-10-18T09:54:56.155Z,11.43
2022-10-18T09:58:09.933Z,10.17
2022-10-18T10:01:24.689Z,9.87
2022-10-18T10:04:31.057Z,10.31
2022-10-18T10:07:45.335Z,9.44
2022-10-18T10:10:51.465Z,10.12
2022-10-18T10:14:10.700Z,10.32
2022-10-18T10:17:33.966Z,8.99
2022-10-18T10:20:50.021Z,9.69
2022-10-18T10:24:00.900Z,9.38
2022-10-18T10:27:17.091Z,9.66
2022-10-18T10:30:31.377Z,8.25
2022-10-18T10:33:41.812Z,9.19
2022-10-18T10:36:52.512Z,10.22
2022-10-18T10:40:28.683Z,10.43
2022-10-18T10:43:40.420Z,9.85
2022-10-18T10:46:46.402Z,10.63
2022-10-18T10:49:55.194Z,10.84
2022-10-18T10:53:02.331Z,10.18
2022-10-18T10:56:17.134Z,10.63
2022-10-18T10:59:28.063Z,9.69
2022-10-18T11:02:36.870Z,9.61
2022-10-18T11:05:53.326Z,9.72
2022-10-18T11:09:06.364Z,9.36
2022-10-18T11:12:33.421Z,8.86
2022-10-18T11:15:49.357Z,8.85
2022-10-18T11:19:00.503Z,8.21
2022-10-18T11:22:21.712Z,8.16
2022-10-18T11:25:46.402Z,7.71
2022-10-18T11:29:43.785Z,8.42
2022-10-18T11:33:06.878Z,8.81
2022-10-18T11:36:26.791Z,8.91
2022-10-18T11:39:55.648Z,9.53
2022-10-18T11:43:19.818Z,9.25
2022-10-18T11:46:48.162Z,8.72
2022-10-18T11:50:15.584Z,8.59
2022-10-18T11:53:34.504Z,8.18
2022-10-18T11:56:53.248Z,8.70
2022-10-18T12:04:07.555Z,8.94
2022-10-18T12:07:27.808Z,9.58
2022-10-18T12:10:46.171Z,10.35
2022-10-18T12:14:07.595Z,9.29
2022-10-18T12:17:42.808Z,8.86
2022-10-18T12:20:56.464Z,8.61
2022-10-18T12:24:11.304Z,8.25
2022-10-18T12:27:20.002Z,8.49
2022-10-18T12:30:43.440Z,8.38
2022-10-18T12:33:59.649Z,8.76
2022-10-18T12:37:34.681Z,8.60
2022-10-18T12:40:46.899Z,8.51
2022-10-18T12:44:08.298Z,8.58
2022-10-18T12:47:27.636Z,8.62
2022-10-18T12:50:39.130Z,8.53
2022-10-18T12:53:47.895Z,9.60
2022-10-18T12:56:53.596Z,9.74
2022-10-18T12:59:59.107Z,10.20
2022-10-18T13:03:44.468Z,10.74
2022-10-18T13:07:23.528Z,10.85
2022-10-18T13:10:39.859Z,10.88
2022-10-18T13:14:31.150Z,12.07
2022-10-18T13:17:50.742Z,16.08
2022-10-18T13:21:19.578Z,13.42
2022-10-18T13:24:40.976Z,13.51
2022-10-18T13:27:56.042Z,10.63
2022-10-18T13:31:21.838Z,11.01
2022-10-18T13:34:38.262Z,13.86
2022-10-18T13:38:01.069Z,11.37
2022-10-18T13:41:12.912Z,13.79
2022-10-18T13:44:32.677Z,13.55
2022-10-18T13:47:40.777Z,13.04
2022-10-18T13:50:50.628Z,12.16
2022-10-18T13:54:19.500Z,12.50
2022-10-18T13:57:48.834Z,12.51
2022-10-18T14:01:29.140Z,12.85
2022-10-18T14:05:23.758Z,11.62
2022-10-18T14:08:41.368Z,11.92
2022-10-18T14:12:16.382Z,11.54
2022-10-18T14:15:29.430Z,11.65
2022-10-18T14:18:43.188Z,11.83
2022-10-18T14:22:10.539Z,12.53
2022-10-18T14:25:28.838Z,13.39
2022-10-18T14:28:58.499Z,12.51
2022-10-18T14:32:04.836Z,13.25
2022-10-18T14:35:37.917Z,12.27
2022-10-18T14:38:53.646Z,12.29
2022-10-18T14:42:00.973Z,12.74
2022-10-18T14:45:25.926Z,12.84
2022-10-18T14:48:31.527Z,13.46
2022-10-18T14:51:44.205Z,13.82
2022-10-18T14:54:53.636Z,13.37
2022-10-18T14:57:59.528Z,13.84
2022-10-18T15:01:08.942Z,13.58
2022-10-18T15:04:28.478Z,14.01
2022-10-18T15:07:36.096Z,15.22
2022-10-18T15:10:41.945Z,15.10
2022-10-18T15:13:55.089Z,14.26
2022-10-18T15:17:19.254Z,14.50
2022-10-18T15:20:31.148Z,17.94
2022-10-18T15:23:37.099Z,18.95
2022-10-18T15:26:49.553Z,18.71
2022-10-18T15:29:56.065Z,15.36
2022-10-18T15:33:09.952Z,14.52
2022-10-18T15:36:31.739Z,16.43
2022-10-18T15:39:37.397Z,15.93
2022-10-18T15:42:42.918Z,17.30
2022-10-18T15:45:58.763Z,17.71
2022-10-18T15:49:57.050Z,17.73
2022-10-18T15:53:48.035Z,17.47
2022-10-18T15:56:53.981Z,16.13
2022-10-18T16:00:09.528Z,17.03
2022-10-18T16:03:22.558Z,17.82
2022-10-18T16:06:30.914Z,17.42
2022-10-18T16:09:38.386Z,18.39
2022-10-18T16:13:11.539Z,18.01
2022-10-18T16:16:23.290Z,17.22
2022-10-18T16:19:32.221Z,17.85
2022-10-18T16:22:43.797Z,18.82
2022-10-18T16:25:49.391Z,20.64
2022-10-18T16:28:57.414Z,20.93
2022-10-18T16:32:06.106Z,22.92
2022-10-18T16:35:13.773Z,22.05
2022-10-18T16:38:35.274Z,21.48
2022-10-18T16:41:57.657Z,22.16
2022-10-18T16:45:03.424Z,20.96
2022-10-18T16:48:09.482Z,20.27
2022-10-18T16:51:16.196Z,19.04
2022-10-18T16:54:24.824Z,19.23
2022-10-18T16:57:30.486Z,18.67
2022-10-18T17:00:37.015Z,18.85
2022-10-18T17:03:42.840Z,18.56
2022-10-18T17:06:51.879Z,19.07
2022-10-18T17:10:00.037Z,19.34
2022-10-18T17:13:26.731Z,20.49
2022-10-18T17:16:37.244Z,19.52
2022-10-18T17:19:43.112Z,18.68
2022-10-18T17:22:48.803Z,19.27
2022-10-18T17:26:07.192Z,20.20
2022-10-18T17:29:25.953Z,20.05
2022-10-18T17:32:31.620Z,19.27
2022-10-18T17:35:47.269Z,19.31
2022-10-18T17:38:54.146Z,19.22
2022-10-18T17:42:03.430Z,19.19
2022-10-18T17:45:12.488Z,19.65
2022-10-18T17:48:20.106Z,18.98
2022-10-18T17:51:26.594Z,18.94
2022-10-18T17:54:34.237Z,18.64
2022-10-18T17:57:46.516Z,19.08
2022-10-18T18:00:52.128Z,19.42
2022-10-18T18:04:02.669Z,19.81
2022-10-18T18:07:08.819Z,19.72
2022-10-18T18:10:14.681Z,20.41
2022-10-18T18:13:25.133Z,20.65
2022-10-18T18:16:35.138Z,21.58
2022-10-18T18:19:41.608Z,23.84
2022-10-18T18:22:50.684Z,23.40
2022-10-18T18:26:00.698Z,22.81
2022-10-18T18:29:10.193Z,22.34
2022-10-18T18:32:16.640Z,21.74
2022-10-18T18:35:22.520Z,21.48
2022-10-18T18:38:29.912Z,20.72
2022-10-18T18:41:37.636Z,20.64
2022-10-18T18:44:46.802Z,20.90
2022-10-18T18:47:52.616Z,21.42
2022-10-18T18:50:59.117Z,20.87
2022-10-18T18:54:06.236Z,21.46
2022-10-18T18:57:12.063Z,20.82
2022-10-18T19:00:20.973Z,20.21
2022-10-18T19:03:26.789Z,20.58
2022-10-18T19:06:36.974Z,19.74
2022-10-18T19:09:47.183Z,28.12
2022-10-18T19:12:52.764Z,30.21
2022-10-18T19:16:29.228Z,37.88
2022-10-18T19:19:36.240Z,21.48
2022-10-18T19:22:42.534Z,19.69
2022-10-18T19:25:48.555Z,14.23
2022-10-18T19:28:56.480Z,12.93
2022-10-18T19:32:08.007Z,11.14
2022-10-18T19:35:13.626Z,10.55
2022-10-18T19:38:24.182Z,15.32
2022-10-18T19:41:31.287Z,10.06
2022-10-18T19:44:41.054Z,9.00
2022-10-18T19:47:53.778Z,10.11
2022-10-18T19:51:00.600Z,10.01
2022-10-18T19:54:06.952Z,11.15
2022-10-18T19:57:13.300Z,10.42
2022-10-18T20:00:19.879Z,9.73
2022-10-18T20:03:33.138Z,10.80
2022-10-18T20:06:40.813Z,12.21
2022-10-18T20:09:48.243Z,10.67
2022-10-18T20:12:56.461Z,10.54
2022-10-18T20:16:04.059Z,9.71
2022-10-18T20:19:14.655Z,8.66
2022-10-18T20:22:35.585Z,7.22
2022-10-18T20:25:42.457Z,6.55
2022-10-18T20:28:49.682Z,6.88
2022-10-18T20:31:55.820Z,9.58
2022-10-18T20:35:04.259Z,7.57
2022-10-18T20:38:09.810Z,9.34
2022-10-18T20:41:20.080Z,11.05
2022-10-18T20:44:27.115Z,12.52
2022-10-18T20:47:33.169Z,12.97
2022-10-18T20:50:44.970Z,11.80
2022-10-18T20:53:51.012Z,8.76
2022-10-18T20:56:56.614Z,7.95
2022-10-18T21:00:02.440Z,8.75
2022-10-18T21:03:08.093Z,8.77
2022-10-18T21:06:31.684Z,8.22
2022-10-18T21:09:37.335Z,8.59
2022-10-18T21:12:42.928Z,8.89
2022-10-18T21:16:02.670Z,8.91
2022-10-18T21:19:10.482Z,8.82
2022-10-18T21:22:18.678Z,8.24
2022-10-18T21:25:24.503Z,8.55
2022-10-18T21:28:33.342Z,9.14
2022-10-18T21:31:43.037Z,9.22
2022-10-18T21:34:48.656Z,10.16
2022-10-18T21:37:56.820Z,10.33
2022-10-18T21:41:02.597Z,10.66
2022-10-18T21:44:10.725Z,29.32
2022-10-18T21:47:16.726Z,13.39
2022-10-18T21:50:22.343Z,12.32
2022-10-18T21:53:31.901Z,11.86
2022-10-18T21:56:39.147Z,12.47
2022-10-18T21:59:44.774Z,13.27
2022-10-18T22:02:53.930Z,12.44
2022-10-18T22:06:08.005Z,13.13
2022-10-18T22:09:30.231Z,13.74
2022-10-18T22:12:37.364Z,12.69
2022-10-18T22:15:43.032Z,11.30
2022-10-18T22:18:50.798Z,11.10
2022-10-18T22:21:56.964Z,11.27
2022-10-18T22:25:05.244Z,12.49
2022-10-18T22:28:10.819Z,12.74
2022-10-18T22:31:23.249Z,13.15
2022-10-18T22:34:30.415Z,12.69
2022-10-18T22:37:36.333Z,12.74
2022-10-18T22:40:50.242Z,11.87
2022-10-18T22:43:58.514Z,10.00
2022-10-18T22:47:13.582Z,9.55
2022-10-18T22:50:19.483Z,9.45
2022-10-18T22:53:25.437Z,8.23
2022-10-18T22:56:33.676Z,7.80
2022-10-18T22:59:39.345Z,8.46
2022-10-18T23:02:44.917Z,9.67
2022-10-18T23:05:52.121Z,10.61
2022-10-18T23:09:01.303Z,11.54
2022-10-18T23:12:16.096Z,11.62
2022-10-18T23:15:25.462Z,24.16
2022-10-18T23:18:31.121Z,47.19
2022-10-18T23:21:41.256Z,46.07
2022-10-18T23:24:47.158Z,39.48
2022-10-18T23:27:55.272Z,25.94
2022-10-18T23:31:08.445Z,30.96
2022-10-18T23:34:14.170Z,27.01
2022-10-18T23:37:19.899Z,27.19
2022-10-18T23:40:25.600Z,32.70
2022-10-18T23:43:34.360Z,24.59
2022-10-18T23:46:39.920Z,20.57
2022-10-18T23:49:45.897Z,17.85
2022-10-18T23:52:51.515Z,18.87
2022-10-18T23:56:00.756Z,18.99
2022-10-18T23:59:08.912Z,15.67
